Time;durP1;ratioP1;P1;durP2;ratioP2;P2;SDS_P1;SDS_P2;PMS_P1;PMS_P2;Temp;Humidity;BMP_temperature;BMP_pressure;BME280_temperature;BME280_humidity;BME280_pressure;Samples;Min_cycle;Max_cycle;Signal;HPM_P1;HPM_P2
2022/10/26 00:01:28;;;;;;;11.88;6.78;;;;;;;9.16;93.62;101254.41;7399085;19;20074;-67
2022/10/26 00:03:59;;;;;;;9.52;5.82;;;;;;;9.13;93.63;101260.53;7400248;19;20434;-67
2022/10/26 00:06:29;;;;;;;10.75;7.25;;;;;;;9.10;93.70;101258.81;7400050;19;20018;-67
2022/10/26 00:08:59;;;;;;;10.35;7.22;;;;;;;9.08;93.63;101262.31;7398395;19;20369;-68
2022/10/26 00:11:27;;;;;;;13.05;7.68;;;;;;;9.05;93.55;101268.44;7398390;19;20485;-67
2022/10/26 00:13:56;;;;;;;14.27;7.65;;;;;;;9.03;93.67;101264.09;7400409;19;20094;-67
2022/10/26 00:16:26;;;;;;;12.57;6.93;;;;;;;9.00;93.72;101262.38;7397447;19;20471;-67
2022/10/26 00:18:55;;;;;;;8.30;6.35;;;;;;;8.97;93.61;101259.78;7400541;19;20040;-68
2022/10/26 00:21:26;;;;;;;9.18;6.45;;;;;;;8.96;93.67;101258.06;7397588;19;20081;-67
2022/10/26 00:23:55;;;;;;;8.98;6.00;;;;;;;8.93;93.70;101258.06;7398208;19;20074;-67
2022/10/26 00:26:23;;;;;;;11.32;6.47;;;;;;;8.91;93.74;101262.41;7398981;19;20544;-68
2022/10/26 00:28:56;;;;;;;15.68;6.57;;;;;;;8.88;93.59;101260.69;7400094;19;20074;-67
2022/10/26 00:31:24;;;;;;;10.57;6.60;;;;;;;8.86;93.64;101264.19;7398503;19;20023;-68
2022/10/26 00:33:54;;;;;;;11.43;6.22;;;;;;;8.83;93.63;101267.72;7397463;19;20031;-67
2022/10/26 00:36:26;;;;;;;10.98;6.70;;;;;;;8.80;93.56;101268.59;7399273;19;20497;-67
2022/10/26 00:38:57;;;;;;;10.95;6.40;;;;;;;8.76;93.39;101272.13;7400139;19;20086;-67
2022/10/26 00:41:27;;;;;;;15.73;7.80;;;;;;;8.74;93.48;101280.84;7396691;19;20082;-67
2022/10/26 00:43:56;;;;;;;12.65;7.07;;;;;;;8.70;93.34;101273.91;7397149;19;20078;-67
2022/10/26 00:46:28;;;;;;;14.60;8.85;;;;;;;8.64;93.39;101273.06;7399198;19;20082;-68
2022/10/26 00:49:02;;;;;;;12.30;7.60;;;;;;;8.60;93.36;101278.31;7398823;19;20019;-67
2022/10/26 00:51:37;;;;;;;13.20;6.72;;;;;;;8.57;93.48;101275.72;7397716;19;20029;-67
2022/10/26 00:54:10;;;;;;;10.45;6.00;;;;;;;8.53;93.45;101280.09;7396485;19;20509;-67
2022/10/26 00:56:39;;;;;;;7.57;5.63;;;;;;;8.50;93.38;101272.25;7399420;19;20077;-66
2022/10/26 00:59:12;;;;;;;8.88;5.47;;;;;;;8.47;93.32;101274.88;7398887;19;20019;-67
2022/10/26 01:01:43;;;;;;;8.55;5.88;;;;;;;8.43;93.23;101274.00;7396673;19;20078;-67
2022/10/26 01:04:12;;;;;;;10.38;6.45;;;;;;;8.41;93.24;101270.50;7399099;19;20070;-68
2022/10/26 01:06:44;;;;;;;6.20;5.38;;;;;;;8.39;93.25;101276.63;7398141;19;20549;-67
2022/10/26 01:09:14;;;;;;;8.57;6.07;;;;;;;8.36;93.18;101271.41;7400259;19;20022;-68
2022/10/26 01:11:42;;;;;;;14.70;7.25;;;;;;;8.33;93.33;101282.75;7397038;19;20027;-68
2022/10/26 01:14:12;;;;;;;11.00;6.68;;;;;;;8.30;93.25;101277.53;7398264;19;20433;-67
2022/10/26 01:16:55;;;;;;;13.02;5.68;;;;;;;8.28;93.37;101282.78;7398259;19;20501;-67
2022/10/26 01:19:52;;;;;;;8.88;6.03;;;;;;;8.26;93.44;101270.56;7398543;19;20027;-67
2022/10/26 01:22:37;;;;;;;9.48;5.57;;;;;;;8.23;93.25;101274.06;7396073;19;20036;-68
2022/10/26 01:25:18;;;;;;;9.75;5.57;;;;;;;8.20;93.26;101274.09;7397589;19;20504;-68
2022/10/26 01:27:50;;;;;;;10.13;5.57;;;;;;;8.18;93.28;101267.13;7396633;19;20011;-67
2022/10/26 01:30:28;;;;;;;10.20;5.65;;;;;;;8.15;93.46;101276.72;7397780;19;20105;-67
2022/10/26 01:33:12;;;;;;;10.50;5.65;;;;;;;8.13;93.26;101272.38;7397380;19;20082;-67
2022/10/26 01:35:47;;;;;;;9.85;6.13;;;;;;;8.09;93.22;101262.81;7398302;19;20074;-67
2022/10/26 01:38:24;;;;;;;8.88;5.35;;;;;;;8.06;93.36;101268.03;7397987;19;20035;-67
2022/10/26 01:40:58;;;;;;;9.80;5.30;;;;;;;8.05;93.39;101266.28;7395212;19;20078;-67
2022/10/26 01:43:27;;;;;;;;;;;;;;;8.01;93.64;101265.41;7397962;19;20493;-68
2022/10/26 01:46:00;;;;;;;10.23;6.38;;;;;;;7.97;93.46;101259.34;7397408;19;19991;-67
2022/10/26 01:48:31;;;;;;;11.80;7.43;;;;;;;7.97;93.20;101264.59;7396931;19;20489;-68
2022/10/26 01:51:00;;;;;;;15.90;6.80;;;;;;;7.95;93.57;101270.69;7395926;19;20074;-67
2022/10/26 01:53:29;;;;;;;13.07;7.45;;;;;;;7.95;93.66;101268.06;7397110;19;20081;-67
2022/10/26 01:55:58;;;;;;;14.23;7.00;;;;;;;7.93;94.00;101262.81;7395333;19;20033;-68
2022/10/26 01:58:59;;;;;;;14.90;7.45;;;;;;;7.92;93.96;101263.72;7396492;19;20477;-68
2022/10/26 02:01:44;;;;;;;10.35;6.68;;;;;;;7.91;93.90;101259.38;7395136;19;20035;-67
2022/10/26 02:04:28;;;;;;;13.15;6.55;;;;;;;7.89;94.19;101255.88;7395875;19;20074;-67
2022/10/26 02:07:04;;;;;;;12.70;5.88;;;;;;;7.90;94.10;101261.97;7397255;19;20090;-67
2022/10/26 02:09:39;;;;;;;11.45;6.88;;;;;;;7.87;94.26;101255.00;7396242;19;20015;-68
2022/10/26 02:12:14;;;;;;;12.07;6.75;;;;;;;7.88;94.31;101253.28;7394889;19;20089;-67
2022/10/26 02:14:51;;;;;;;11.77;6.70;;;;;;;7.86;94.11;101250.69;7396800;19;20074;-67
2022/10/26 02:17:30;;;;;;;11.02;6.60;;;;;;;7.86;94.45;101258.50;7394446;19;20070;-67
2022/10/26 02:20:04;;;;;;;8.80;6.10;;;;;;;7.86;94.36;101255.91;7395313;19;20022;-68
2022/10/26 02:22:35;;;;;;;;;;;;;;;7.84;94.48;101252.41;7397215;19;20018;-68
2022/10/26 02:25:09;;;;;;;9.80;6.32;;;;;;;7.83;94.19;101263.72;7396972;19;19919;-67
2022/10/26 02:27:43;;;;;;;10.07;6.70;;;;;;;7.80;94.15;101259.38;7395052;19;20074;-67
2022/10/26 02:30:14;;;;;;;15.20;6.93;;;;;;;7.78;94.27;101255.88;7396153;19;20094;-67
2022/10/26 02:32:49;;;;;;;11.48;7.28;;;;;;;7.77;94.40;101259.41;7393943;19;20481;-67
2022/10/26 02:35:21;;;;;;;7.78;6.93;;;;;;;7.76;94.45;101257.66;7394115;19;20035;-67
2022/10/26 02:37:51;;;;;;;12.18;7.60;;;;;;;7.75;94.44;101257.66;7394349;19;20085;-67
2022/10/26 02:40:23;;;;;;;13.43;7.72;;;;;;;7.74;94.49;101259.38;7395491;19;20077;-67
2022/10/26 02:42:54;;;;;;;12.13;7.43;;;;;;;7.73;94.43;101267.22;7396102;19;20046;-67
2022/10/26 02:45:27;;;;;;;14.60;9.20;;;;;;;7.71;94.54;101255.91;7396022;19;20131;-68
2022/10/26 02:47:59;;;;;;;15.65;9.02;;;;;;;7.70;94.72;101264.66;7393873;19;20131;-67
2022/10/26 02:50:34;;;;;;;12.82;9.52;;;;;;;7.68;94.73;101264.63;7393809;19;20022;-67
2022/10/26 02:53:11;;;;;;;12.23;7.90;;;;;;;7.68;95.19;101272.44;7395816;19;20070;-67
2022/10/26 02:55:48;;;;;;;12.20;8.73;;;;;;;7.69;95.19;101263.75;7395267;19;20433;-66
2022/10/26 02:58:21;;;;;;;15.90;8.90;;;;;;;7.69;95.34;101262.91;7394751;19;20548;-66
2022/10/26 03:00:52;;;;;;;14.50;8.53;;;;;;;7.69;95.43;101258.53;7395143;19;20090;-67
2022/10/26 03:03:24;;;;;;;13.32;9.73;;;;;;;7.71;95.31;101258.53;7395439;19;20078;-67
2022/10/26 03:05:52;;;;;;;16.33;8.68;;;;;;;7.71;95.34;101251.56;7393128;19;20084;-70
2022/10/26 03:08:20;;;;;;;12.60;8.55;;;;;;;7.71;95.55;101258.53;7394751;19;20086;-68
2022/10/26 03:10:49;;;;;;;14.52;8.77;;;;;;;7.72;95.23;101257.66;7393579;19;20090;-70
2022/10/26 03:13:17;;;;;;;18.98;10.10;;;;;;;7.71;95.25;101255.91;7394680;19;20011;-67
2022/10/26 03:15:46;;;;;;;15.43;10.35;;;;;;;7.70;95.66;101264.66;7396318;19;20070;-67
2022/10/26 03:18:14;;;;;;;12.85;9.35;;;;;;;7.70;95.35;101259.41;7401808;19;20074;-67
2022/10/26 03:20:48;;;;;;;15.98;11.27;;;;;;;7.68;95.66;101267.22;7401200;19;20086;-67
2022/10/26 03:23:16;;;;;;;20.13;11.73;;;;;;;7.68;95.55;101266.38;7401864;19;20082;-68
2022/10/26 03:25:44;;;;;;;17.92;12.43;;;;;;;7.67;95.79;101270.72;7398707;19;20471;-69
2022/10/26 03:28:13;;;;;;;17.60;12.50;;;;;;;7.66;95.74;101269.00;7399500;19;20070;-68
2022/10/26 03:30:41;;;;;;;18.58;12.02;;;;;;;7.66;96.06;101266.38;7400369;19;20497;-68
2022/10/26 03:33:10;;;;;;;16.92;11.50;;;;;;;7.65;96.05;101262.03;7401750;19;20078;-68
2022/10/26 03:35:38;;;;;;;16.25;11.70;;;;;;;7.65;96.04;101252.44;7397812;19;20436;-68
2022/10/26 03:38:09;;;;;;;17.45;12.35;;;;;;;7.64;96.06;101258.53;7401052;19;20074;-66
2022/10/26 03:40:38;;;;;;;19.77;13.70;;;;;;;7.65;96.19;101262.03;7397706;19;20082;-68
2022/10/26 03:43:06;;;;;;;20.73;13.45;;;;;;;7.65;96.21;101256.81;7398564;19;20078;-67
2022/10/26 03:45:35;;;;;;;16.60;11.75;;;;;;;7.65;96.37;101252.44;7398380;19;20073;-68
2022/10/26 03:48:03;;;;;;;16.83;11.68;;;;;;;7.64;96.21;101245.47;7398058;19;20431;-67
2022/10/26 03:50:32;;;;;;;18.70;11.55;;;;;;;7.64;96.38;101253.31;7400363;19;20074;-66
2022/10/26 03:53:00;;;;;;;17.98;11.75;;;;;;;7.63;96.70;101251.59;7400856;19;20074;-67
2022/10/26 03:55:31;;;;;;;17.17;12.18;;;;;;;7.63;96.52;101245.47;7397800;19;20510;-67
2022/10/26 03:58:00;;;;;;;14.68;11.05;;;;;;;7.63;96.68;101254.19;7400243;19;20488;-67
2022/10/26 04:00:28;;;;;;;15.85;10.95;;;;;;;7.62;96.76;101255.06;7399936;19;20018;-66
2022/10/26 04:02:58;;;;;;;14.10;10.95;;;;;;;7.61;96.76;101255.94;7398159;19;20081;-67
2022/10/26 04:05:28;;;;;;;17.50;11.23;;;;;;;7.61;96.88;101261.16;7400155;19;20544;-67
2022/10/26 04:07:58;;;;;;;16.25;11.35;;;;;;;7.58;96.95;101263.78;7398143;19;20070;-67
2022/10/26 04:10:28;;;;;;;15.20;10.60;;;;;;;7.57;96.96;101259.44;7399215;19;20019;-66
2022/10/26 04:13:00;;;;;;;19.17;11.25;;;;;;;7.56;96.96;101260.28;7397537;19;20098;-67
2022/10/26 04:15:29;;;;;;;15.57;10.60;;;;;;;7.56;96.90;101256.81;7397176;19;20014;-67
2022/10/26 04:17:58;;;;;;;14.27;10.60;;;;;;;7.55;97.06;101249.84;7400009;19;20082;-67
2022/10/26 04:20:28;;;;;;;14.18;10.43;;;;;;;7.55;97.06;101255.94;7399051;19;20037;-68
2022/10/26 04:23:00;;;;;;;15.52;11.25;;;;;;;7.53;96.96;101249.84;7397656;19;20079;-68
2022/10/26 04:25:29;;;;;;;14.07;10.52;;;;;;;7.54;97.07;101255.94;7396984;19;20402;-67
2022/10/26 04:28:01;;;;;;;13.68;11.27;;;;;;;7.51;96.95;101243.75;7395557;19;20078;-67
2022/10/26 04:30:30;;;;;;;16.38;10.70;;;;;;;7.50;97.07;101253.31;7396647;19;20078;-67
2022/10/26 04:32:58;;;;;;;20.33;10.75;;;;;;;7.50;97.00;101252.47;7399516;19;20019;-67
2022/10/26 04:35:27;;;;;;;17.50;10.68;;;;;;;7.47;96.78;101253.34;7399135;19;20170;-67
2022/10/26 04:38:00;;;;;;;14.27;11.35;;;;;;;7.46;96.91;101251.59;7399137;19;20031;-67
2022/10/26 04:40:28;;;;;;;14.18;10.45;;;;;;;7.45;96.80;101249.00;7398814;19;20030;-67
2022/10/26 04:43:00;;;;;;;17.70;11.32;;;;;;;7.42;96.79;101251.59;7396685;19;20025;-67
2022/10/26 04:45:29;;;;;;;15.60;11.07;;;;;;;7.42;96.89;101251.59;7398858;19;20022;-68
2022/10/26 04:48:02;;;;;;;17.77;10.93;;;;;;;7.40;96.85;101251.59;7396517;19;20022;-67
2022/10/26 04:50:30;;;;;;;16.50;12.13;;;;;;;7.37;96.99;101246.38;7397902;19;20432;-67
2022/10/26 04:52:59;;;;;;;17.92;10.77;;;;;;;7.35;97.06;101253.34;7396259;19;20070;-68
2022/10/26 04:55:28;;;;;;;14.23;10.38;;;;;;;7.32;96.89;101251.59;7396431;19;20023;-67
2022/10/26 04:57:56;;;;;;;15.57;11.18;;;;;;;7.29;96.97;101246.38;7397978;19;20095;-66
2022/10/26 05:00:29;;;;;;;20.92;13.00;;;;;;;7.28;96.66;101252.47;7395549;19;20401;-67
2022/10/26 05:03:01;;;;;;;18.73;12.93;;;;;;;7.25;96.92;101247.25;7396302;19;20026;-67
2022/10/26 05:05:29;;;;;;;18.08;12.73;;;;;;;7.22;96.85;101252.47;7398889;19;20131;-68
2022/10/26 05:07:58;;;;;;;18.85;12.05;;;;;;;7.22;96.80;101246.41;7395803;19;20086;-66
2022/10/26 05:10:27;;;;;;;22.08;15.90;;;;;;;7.20;96.91;101248.97;7397317;19;20089;-67
2022/10/26 05:12:56;;;;;;;22.45;15.13;;;;;;;7.16;96.98;101239.41;7398391;19;20078;-67
2022/10/26 05:15:28;;;;;;;17.08;12.93;;;;;;;7.16;96.98;101247.25;7397870;19;20018;-67
2022/10/26 05:17:57;;;;;;;15.63;12.20;;;;;;;7.15;96.80;101250.72;7397675;19;20021;-67
2022/10/26 05:20:34;;;;;;;16.35;11.93;;;;;;;7.13;96.89;101242.91;7397399;19;20021;-67
2022/10/26 05:23:04;;;;;;;17.48;12.07;;;;;;;7.11;96.78;101242.00;7395289;19;20089;-67
2022/10/26 05:25:34;;;;;;;15.48;12.13;;;;;;;7.09;96.65;101250.72;7395600;19;20085;-67
2022/10/26 05:28:04;;;;;;;16.77;12.00;;;;;;;7.07;96.62;101248.09;7396431;19;20082;-67
2022/10/26 05:30:35;;;;;;;18.65;12.18;;;;;;;7.06;96.68;101250.72;7397917;19;20085;-67
2022/10/26 05:33:04;;;;;;;14.82;11.30;;;;;;;7.02;96.81;101249.84;7394870;19;20086;-67
2022/10/26 05:35:34;;;;;;;17.60;10.57;;;;;;;7.02;96.76;101252.44;7396706;19;20040;-67
2022/10/26 05:38:08;;;;;;;13.20;10.77;;;;;;;7.00;96.83;101251.56;7394653;19;20097;-67
2022/10/26 05:40:37;;;;;;;15.57;11.30;;;;;;;6.98;96.90;101248.09;7395653;19;20078;-68
2022/10/26 05:43:06;;;;;;;14.25;11.27;;;;;;;6.96;96.87;101250.72;7394660;19;20082;-66
2022/10/26 05:45:37;;;;;;;17.60;11.75;;;;;;;6.97;96.61;101249.81;7395697;19;20418;-67
2022/10/26 05:48:06;;;;;;;20.98;11.40;;;;;;;6.95;96.97;101240.25;7395985;19;20031;-67
2022/10/26 05:50:34;;;;;;;16.75;9.98;;;;;;;6.94;96.77;101248.97;7393962;19;20386;-66
2022/10/26 05:53:03;;;;;;;14.93;10.50;;;;;;;6.94;96.79;101257.66;7396107;19;20078;-66
2022/10/26 05:55:32;;;;;;;13.93;10.23;;;;;;;6.92;96.91;101256.78;7396625;19;20423;-67
2022/10/26 05:58:01;;;;;;;14.30;11.27;;;;;;;6.91;96.82;101254.19;7395744;19;20094;-66
2022/10/26 06:00:31;;;;;;;15.40;11.32;;;;;;;6.90;96.72;101261.16;7394768;19;20088;-67
2022/10/26 06:03:24;;;;;;;13.38;11.00;;;;;;;6.88;96.78;101260.25;7393603;19;20022;-68
2022/10/26 06:05:55;;;;;;;14.63;10.55;;;;;;;6.88;96.68;101267.22;7394066;19;20086;-67
2022/10/26 06:08:25;;;;;;;15.05;10.73;;;;;;;6.86;96.71;101269.81;7394454;19;20018;-68
2022/10/26 06:10:55;;;;;;;13.30;9.93;;;;;;;6.87;96.63;101275.91;7396515;19;20088;-68
2022/10/26 06:13:24;;;;;;;14.85;12.57;;;;;;;6.85;96.90;101268.94;7395940;19;20014;-68
2022/10/26 06:16:07;;;;;;;17.92;11.60;;;;;;;6.85;96.85;101278.53;7393910;19;20015;-68
2022/10/26 06:18:49;;;;;;;15.57;12.35;;;;;;;6.85;96.64;101274.16;7395495;19;20070;-67
2022/10/26 06:21:36;;;;;;;18.60;13.35;;;;;;;6.87;96.85;101270.69;7394167;19;20090;-67
2022/10/26 06:24:19;;;;;;;22.25;15.02;;;;;;;6.87;96.71;101263.72;7395604;19;20078;-67
2022/10/26 06:26:59;;;;;;;25.55;18.35;;;;;;;6.88;96.73;101273.31;7396132;19;20078;-68
2022/10/26 06:29:42;;;;;;;38.05;27.25;;;;;;;6.88;96.90;101268.09;7394039;19;20086;-67
2022/10/26 06:32:11;;;;;;;31.60;23.70;;;;;;;6.88;96.70;101268.09;7394398;19;20082;-68
2022/10/26 06:34:48;;;;;;;25.58;19.10;;;;;;;6.91;96.78;101275.91;7395299;19;20497;-67
2022/10/26 06:37:17;;;;;;;25.67;18.38;;;;;;;6.92;97.16;101280.25;7394162;19;20078;-67
2022/10/26 06:39:47;;;;;;;21.45;16.35;;;;;;;6.94;96.87;101272.47;7395206;19;20081;-66
2022/10/26 06:42:17;;;;;;;22.15;16.70;;;;;;;6.95;97.16;101272.47;7393251;19;20086;-67
2022/10/26 06:44:46;;;;;;;115.20;64.65;;;;;;;6.98;97.33;101268.97;7394835;19;20540;-67
2022/10/26 06:47:20;;;;;;;26.83;18.23;;;;;;;7.01;97.38;101269.84;7395363;19;20082;-66
2022/10/26 06:50:00;;;;;;;15.85;11.82;;;;;;;7.07;97.17;101275.94;7394618;19;20070;-65
2022/10/26 06:52:35;;;;;;;20.42;11.60;;;;;;;7.06;97.26;101272.44;7394958;19;20019;-66
2022/10/26 06:55:04;;;;;;;13.98;11.65;;;;;;;7.10;97.06;101274.22;7395533;19;20074;-67
2022/10/26 06:57:36;;;;;;;20.45;13.55;;;;;;;7.12;97.16;101269.84;7394314;19;20027;-66
2022/10/26 07:00:08;;;;;;;18.63;14.73;;;;;;;7.15;97.22;101276.81;7394617;19;20441;-66
2022/10/26 07:02:36;;;;;;;21.13;15.93;;;;;;;7.15;97.23;101275.09;7393405;19;20513;-68
2022/10/26 07:05:11;;;;;;;22.75;15.82;;;;;;;7.18;97.24;101282.06;7394929;19;20086;-67
2022/10/26 07:07:44;;;;;;;15.32;13.18;;;;;;;7.20;97.22;101288.13;7395134;19;20423;-67
2022/10/26 07:10:13;;;;;;;14.30;11.77;;;;;;;7.22;97.36;101296.84;7394680;19;20014;-67
2022/10/26 07:12:41;;;;;;;15.73;10.98;;;;;;;7.24;97.64;101292.50;7394293;19;20102;-67
2022/10/26 07:15:11;;;;;;;14.23;10.23;;;;;;;7.27;97.52;101300.31;7391790;19;20022;-66
2022/10/26 07:17:47;;;;;;;13.10;10.68;;;;;;;7.30;97.65;101297.72;7392027;19;20018;-67
2022/10/26 07:20:19;;;;;;;15.68;10.88;;;;;;;7.33;97.58;101297.72;7393250;19;20019;-66
2022/10/26 07:22:52;;;;;;;15.60;11.85;;;;;;;7.37;97.77;101293.38;7392593;19;20636;-67
2022/10/26 07:25:21;;;;;;;16.27;13.02;;;;;;;7.41;97.76;101299.47;7391533;19;20510;-67
2022/10/26 07:27:49;;;;;;;22.55;11.93;;;;;;;7.43;97.66;101290.75;7392449;19;20546;-67
2022/10/26 07:30:18;;;;;;;17.40;12.13;;;;;;;7.47;97.71;101296.88;7392920;19;20110;-67
2022/10/26 07:32:46;;;;;;;16.67;13.50;;;;;;;7.51;98.10;101295.97;7391583;19;20154;-65
2022/10/26 07:35:18;;;;;;;16.30;12.48;;;;;;;7.54;97.76;101303.81;7393175;19;20448;-66
2022/10/26 07:37:46;;;;;;;17.02;12.60;;;;;;;7.60;98.07;101300.34;7391818;19;20028;-67
2022/10/26 07:40:15;;;;;;;14.80;11.82;;;;;;;7.63;98.11;101303.81;7393359;19;20423;-69
2022/10/26 07:42:43;;;;;;;14.75;12.18;;;;;;;7.68;98.20;101302.94;7390638;19;20029;-70
2022/10/26 07:45:12;;;;;;;16.05;13.00;;;;;;;7.71;98.03;101301.19;7393314;19;20432;-68
2022/10/26 07:47:41;;;;;;;18.33;12.65;;;;;;;7.76;98.03;101309.00;7393572;19;20086;-68
2022/10/26 07:50:10;;;;;;;18.05;13.07;;;;;;;7.79;98.07;101309.03;7391224;19;20082;-67
2022/10/26 07:52:41;;;;;;;17.20;12.30;;;;;;;7.82;98.22;101312.50;7393187;19;20480;-68
2022/10/26 07:55:11;;;;;;;15.25;11.02;;;;;;;7.86;98.24;101297.69;7393071;19;20074;-65
2022/10/26 07:57:40;;;;;;;19.60;11.20;;;;;;;7.90;98.24;101307.28;7393467;19;20074;-68
2022/10/26 08:00:11;;;;;;;15.73;11.10;;;;;;;7.94;98.37;101298.53;7392608;19;20039;-68
2022/10/26 08:02:40;;;;;;;19.23;12.45;;;;;;;7.99;98.48;101293.31;7396200;19;20097;-67
2022/10/26 08:05:09;;;;;;;19.00;12.25;;;;;;;8.05;98.33;101302.88;7400470;19;20082;-66
2022/10/26 08:07:45;;;;;;;17.15;11.88;;;;;;;8.10;98.63;101295.88;7397830;19;20074;-67
2022/10/26 08:10:15;;;;;;;19.83;11.38;;;;;;;8.14;98.80;101293.28;7400546;19;20018;-68
2022/10/26 08:12:45;;;;;;;18.65;11.98;;;;;;;8.21;98.92;101299.34;7399845;19;20074;-67
2022/10/26 08:15:14;;;;;;;16.52;11.07;;;;;;;8.28;98.80;101297.59;7400210;19;20432;-67
2022/10/26 08:17:43;;;;;;;13.25;10.43;;;;;;;8.36;98.98;101302.78;7399733;19;20082;-67
2022/10/26 08:20:13;;;;;;;16.65;11.68;;;;;;;8.46;98.97;101305.38;7399841;19;20094;-68
2022/10/26 08:22:44;;;;;;;15.70;11.90;;;;;;;8.57;99.08;101302.75;7398813;19;20018;-67
2022/10/26 08:25:12;;;;;;;15.60;10.73;;;;;;;8.69;99.17;101296.56;7396970;19;20033;-66
2022/10/26 08:27:41;;;;;;;18.45;11.55;;;;;;;8.79;99.24;101300.00;7396437;19;20081;-66
2022/10/26 08:30:10;;;;;;;14.82;10.98;;;;;;;8.89;99.21;101309.53;7397502;19;20086;-68
2022/10/26 08:32:38;;;;;;;19.45;12.02;;;;;;;8.99;99.36;101304.28;7398847;19;20025;-66
2022/10/26 08:35:08;;;;;;;16.48;11.57;;;;;;;9.08;99.37;101301.59;7396370;19;20086;-67
2022/10/26 08:37:36;;;;;;;14.63;10.63;;;;;;;9.16;99.22;101302.38;7398459;19;20090;-66
2022/10/26 08:40:08;;;;;;;14.05;10.30;;;;;;;9.24;99.24;101303.22;7396211;19;20157;-68
2022/10/26 08:42:42;;;;;;;14.57;10.02;;;;;;;9.33;99.36;101301.44;7398122;19;20081;-65
2022/10/26 08:45:19;;;;;;;13.88;8.60;;;;;;;9.43;99.19;101296.09;7397843;19;20023;-69
2022/10/26 08:47:52;;;;;;;15.57;8.85;;;;;;;9.55;99.17;101302.97;7399589;19;20086;-67
2022/10/26 08:50:28;;;;;;;12.90;8.70;;;;;;;9.66;99.10;101299.41;7396716;19;20082;-68
2022/10/26 08:53:03;;;;;;;15.85;9.50;;;;;;;9.73;98.91;101296.72;7396136;19;20074;-68
2022/10/26 08:55:43;;;;;;;12.90;9.38;;;;;;;9.84;99.02;101304.44;7400870;19;20366;-68
2022/10/26 08:58:17;;;;;;;11.75;7.95;;;;;;;9.90;98.75;101304.41;7396665;19;20089;-68
2022/10/26 09:00:48;;;;;;;9.23;8.02;;;;;;;9.97;98.82;101296.47;7396633;19;20075;-67
2022/10/26 09:03:18;;;;;;;11.63;7.50;;;;;;;10.01;98.58;101304.28;7397854;19;20093;-67
2022/10/26 09:05:58;;;;;;;10.40;7.28;;;;;;;10.06;98.44;101298.97;7399085;19;20022;-67
2022/10/26 09:08:36;;;;;;;13.80;7.85;;;;;;;10.11;98.57;101299.84;7398082;19;20097;-68
2022/10/26 09:11:18;;;;;;;11.68;8.02;;;;;;;10.19;98.58;101303.22;7396259;19;20018;-67
2022/10/26 09:14:00;;;;;;;11.40;8.90;;;;;;;10.24;98.54;101295.31;7392740;19;20015;-67
2022/10/26 09:16:34;;;;;;;16.48;9.38;;;;;;;10.28;98.43;101290.00;7397221;19;20083;-66
2022/10/26 09:19:29;;;;;;;12.18;7.18;;;;;;;10.34;98.35;101294.31;7398041;19;20086;-67
2022/10/26 09:22:08;;;;;;;8.15;6.20;;;;;;;10.41;98.28;101292.50;7396985;19;20018;-67
2022/10/26 09:24:43;;;;;;;8.55;6.60;;;;;;;10.48;98.33;101293.31;7397601;19;20081;-67
2022/10/26 09:27:23;;;;;;;11.95;6.80;;;;;;;10.56;98.35;101297.59;7397837;19;20035;-67
2022/10/26 09:29:53;;;;;;;6.80;5.88;;;;;;;10.64;98.33;101291.34;7395924;19;20087;-67
2022/10/26 09:32:26;;;;;;;8.52;7.15;;;;;;;10.71;98.05;101295.63;7395084;19;20082;-67
2022/10/26 09:34:59;;;;;;;12.10;6.00;;;;;;;10.79;98.07;101295.53;7395758;19;20074;-68
2022/10/26 09:37:31;;;;;;;7.50;5.07;;;;;;;10.88;98.17;101298.00;7396032;19;20026;-67
2022/10/26 09:40:08;;;;;;;7.68;4.88;;;;;;;10.97;98.34;101295.28;7396791;19;20017;-70
2022/10/26 09:42:43;;;;;;;6.28;3.47;;;;;;;11.06;98.19;101302.16;7396604;19;20055;-69
2022/10/26 09:45:18;;;;;;;6.00;3.40;;;;;;;11.18;97.97;101296.69;7395569;19;20082;-68
2022/10/26 09:47:51;;;;;;;9.60;3.13;;;;;;;11.32;97.37;101304.38;7395621;19;20090;-67
2022/10/26 09:50:26;;;;;;;6.15;3.08;;;;;;;11.44;96.89;101297.16;7396732;19;20086;-67
2022/10/26 09:52:54;;;;;;;5.45;2.63;;;;;;;11.56;96.50;101303.09;7396535;19;20509;-69
2022/10/26 09:55:23;;;;;;;6.22;2.60;;;;;;;11.68;96.27;101301.16;7396578;19;20082;-74
2022/10/26 09:57:58;;;;;;;4.97;2.40;;;;;;;11.81;95.73;101307.06;7394562;19;20086;-69
2022/10/26 10:00:29;;;;;;;5.35;2.42;;;;;;;11.93;95.49;101301.59;7396521;19;20070;-68
2022/10/26 10:02:59;;;;;;;3.95;1.85;;;;;;;12.05;94.79;101303.16;7395821;19;20041;-68
2022/10/26 10:05:30;;;;;;;4.10;1.98;;;;;;;12.16;94.02;101309.06;7394811;19;20032;-67
2022/10/26 10:08:18;;;;;;;4.07;1.88;;;;;;;12.30;93.19;101302.69;7395091;19;20096;-69
2022/10/26 10:11:06;;;;;;;5.32;1.70;;;;;;;12.45;90.19;101306.75;7394106;19;20035;-68
2022/10/26 10:13:40;;;;;;;4.18;1.77;;;;;;;12.62;90.10;101302.00;7394903;19;20074;-70
2022/10/26 10:16:13;;;;;;;5.55;1.40;;;;;;;12.79;89.11;101300.75;7396284;19;20082;-68
2022/10/26 10:18:43;;;;;;;4.22;1.45;;;;;;;12.93;88.64;101303.97;7396202;19;20082;-69
2022/10/26 10:21:13;;;;;;;1.92;1.40;;;;;;;13.05;87.47;101300.19;7393913;19;20086;-68
2022/10/26 10:23:51;;;;;;;8.85;5.60;;;;;;;13.17;85.84;101299.03;7393891;19;20026;-68
2022/10/26 10:26:19;;;;;;;5.00;1.90;;;;;;;13.28;85.84;101298.75;7394079;19;20018;-69
2022/10/26 10:29:02;;;;;;;6.63;2.55;;;;;;;13.40;84.45;101295.88;7394076;19;20091;-69
2022/10/26 10:31:33;;;;;;;3.90;1.63;;;;;;;13.51;84.08;101291.19;7393144;19;20377;-66
2022/10/26 10:34:01;;;;;;;4.28;1.75;;;;;;;13.63;83.03;101291.78;7395543;19;20078;-66
2022/10/26 10:36:31;;;;;;;2.80;1.70;;;;;;;13.73;81.31;101295.06;7395151;19;20082;-68
2022/10/26 10:39:01;;;;;;;3.42;1.40;;;;;;;13.85;81.18;101295.59;7395316;19;20082;-67
2022/10/26 10:41:35;;;;;;;1.55;0.88;;;;;;;13.95;80.64;101295.34;7394053;19;20082;-66
2022/10/26 10:44:09;;;;;;;3.92;1.10;;;;;;;14.01;79.39;101301.34;7392932;19;20018;-68
2022/10/26 10:46:39;;;;;;;2.50;1.05;;;;;;;14.10;79.72;101294.94;7395503;19;20014;-67
2022/10/26 10:49:19;;;;;;;3.17;1.30;;;;;;;14.21;79.71;101301.69;7393433;19;20025;-66
2022/10/26 10:51:48;;;;;;;2.20;1.40;;;;;;;14.34;79.71;101296.03;7393276;19;20019;-66
2022/10/26 10:54:27;;;;;;;2.15;1.10;;;;;;;14.45;79.23;101292.19;7395183;19;20077;-66
2022/10/26 10:56:59;;;;;;;2.58;1.15;;;;;;;14.58;79.07;101284.78;7395519;19;20023;-64
2022/10/26 10:59:42;;;;;;;2.53;0.80;;;;;;;14.67;76.63;101281.88;7394513;19;20018;-64
2022/10/26 11:02:35;;;;;;;4.33;1.30;;;;;;;14.75;77.01;101287.81;7392287;19;20540;-65
2022/10/26 11:05:21;;;;;;;3.53;1.10;;;;;;;14.82;77.32;101281.44;7394276;19;21090;-65
2022/10/26 11:07:59;;;;;;;3.13;1.27;;;;;;;14.93;77.01;101290.81;7394690;19;20082;-66
2022/10/26 11:10:33;;;;;;;2.83;1.42;;;;;;;15.01;77.05;101283.47;7395057;19;20077;-67
2022/10/26 11:13:08;;;;;;;3.72;1.42;;;;;;;15.08;76.60;101284.16;7393897;19;20082;-65
2022/10/26 11:15:44;;;;;;;4.43;1.42;;;;;;;15.19;75.84;101291.72;7394779;19;20094;-66
2022/10/26 11:18:18;;;;;;;3.47;1.10;;;;;;;15.27;75.17;101287.06;7394130;19;20011;-66
2022/10/26 11:20:58;;;;;;;3.20;1.08;;;;;;;15.32;74.87;101280.72;7393484;19;20039;-66
2022/10/26 11:23:35;;;;;;;8.15;2.00;;;;;;;15.42;74.47;101280.44;7392588;19;20015;-66
2022/10/26 11:26:11;;;;;;;5.03;1.25;;;;;;;15.48;73.50;101280.22;7392367;19;20070;-65
2022/10/26 11:28:48;;;;;;;3.10;1.08;;;;;;;15.54;74.05;101274.69;7392009;19;20517;-66
2022/10/26 11:31:24;;;;;;;3.70;1.38;;;;;;;15.63;73.05;101278.81;7393491;19;20026;-66
2022/10/26 11:34:07;;;;;;;3.20;1.33;;;;;;;15.73;72.88;101279.38;7394176;19;20022;-66
2022/10/26 11:36:38;;;;;;;2.78;1.23;;;;;;;15.79;72.07;101274.72;7394958;19;20098;-67
2022/10/26 11:39:16;;;;;;;4.10;1.30;;;;;;;15.82;71.48;101268.47;7401022;19;20563;-66
2022/10/26 11:41:51;;;;;;;13.65;5.00;;;;;;;15.82;71.79;101267.63;7398945;19;20036;-67
2022/10/26 11:44:27;;;;;;;5.88;3.33;;;;;;;15.79;71.55;101269.41;7399760;19;20074;-68
2022/10/26 11:47:02;;;;;;;2.58;1.73;;;;;;;15.83;71.32;101264.06;7401422;19;20014;-66